createdAt,value
2018-11-10T00:01:34.242Z,43.77
2018-11-10T00:04:02.432Z,48.33
2018-11-10T00:06:30.463Z,48.43
2018-11-10T00:08:58.532Z,47.07
2018-11-10T00:11:26.605Z,42.83
2018-11-10T00:13:54.652Z,50.17
2018-11-10T00:16:22.750Z,49.40
2018-11-10T00:18:50.820Z,49.20
2018-11-10T00:21:18.924Z,60.07
2018-11-10T00:23:47.047Z,55.80
2018-11-10T00:26:15.152Z,52.33
2018-11-10T00:28:43.312Z,47.97
2018-11-10T00:31:11.332Z,58.97
2018-11-10T00:33:39.453Z,52.83
2018-11-10T00:36:07.524Z,65.30
2018-11-10T00:38:35.595Z,61.43
2018-11-10T00:41:03.640Z,66.20
2018-11-10T00:43:32.020Z,54.33
2018-11-10T00:46:00.133Z,54.37
2018-11-10T00:48:28.197Z,57.40
2018-11-10T00:50:56.263Z,74.37
2018-11-10T00:53:24.413Z,57.27
2018-11-10T00:55:52.482Z,54.70
2018-11-10T00:58:20.693Z,62.53
2018-11-10T01:00:48.745Z,68.10
2018-11-10T01:03:16.834Z,61.73
2018-11-10T01:05:44.882Z,52.33
2018-11-10T01:08:12.950Z,53.90
2018-11-10T01:10:41.029Z,57.17
2018-11-10T01:13:09.138Z,58.67
2018-11-10T01:15:37.218Z,56.47
2018-11-10T01:18:05.483Z,61.70
2018-11-10T01:20:33.540Z,61.10
2018-11-10T01:23:01.582Z,60.70
2018-11-10T01:25:29.669Z,57.77
2018-11-10T01:27:57.901Z,52.63
2018-11-10T01:30:25.939Z,67.43
2018-11-10T01:32:54.028Z,55.43
2018-11-10T01:35:22.122Z,56.47
2018-11-10T01:37:50.262Z,63.17
2018-11-10T01:40:19.337Z,53.67
2018-11-10T01:42:48.477Z,62.63
2018-11-10T01:45:17.404Z,54.50
2018-11-10T01:47:46.025Z,43.27
2018-11-10T01:50:14.194Z,56.87
2018-11-10T01:52:42.651Z,57.20
2018-11-10T01:55:12.910Z,55.67
2018-11-10T01:57:41.685Z,54.30
2018-11-10T02:00:12.327Z,61.43
2018-11-10T02:02:40.389Z,55.27
2018-11-10T02:05:08.549Z,47.20
2018-11-10T02:07:36.631Z,41.17
2018-11-10T02:10:05.199Z,44.97
2018-11-10T02:12:33.374Z,44.00
2018-11-10T02:15:01.443Z,49.80
2018-11-10T02:17:29.535Z,45.50
2018-11-10T02:19:57.584Z,46.30
2018-11-10T02:22:25.741Z,48.57
2018-11-10T02:24:53.855Z,47.67
2018-11-10T02:27:23.056Z,44.77
2018-11-10T02:29:52.554Z,45.47
2018-11-10T02:32:20.709Z,43.07
2018-11-10T02:34:48.911Z,44.83
2018-11-10T02:37:17.036Z,57.47
2018-11-10T02:39:45.145Z,45.97
2018-11-10T02:42:13.282Z,46.90
2018-11-10T02:44:41.557Z,52.03
2018-11-10T02:47:09.651Z,50.43
2018-11-10T02:49:37.776Z,51.30
2018-11-10T02:52:05.840Z,49.00
2018-11-10T02:54:33.865Z,48.67
2018-11-10T02:57:01.940Z,46.67
2018-11-10T02:59:30.051Z,42.23
2018-11-10T03:01:58.084Z,47.33
2018-11-10T03:04:26.159Z,41.70
2018-11-10T03:06:54.270Z,49.00
2018-11-10T03:09:22.355Z,41.53
2018-11-10T03:11:50.387Z,46.80
2018-11-10T03:14:18.468Z,52.43
2018-11-10T03:16:46.526Z,50.87
2018-11-10T03:19:14.630Z,44.60
2018-11-10T03:21:42.717Z,47.47
2018-11-10T03:24:10.779Z,44.63
2018-11-10T03:26:38.810Z,39.27
2018-11-10T03:29:06.879Z,45.70
2018-11-10T03:31:34.968Z,41.03
2018-11-10T03:34:03.081Z,40.20
2018-11-10T03:36:31.218Z,40.93
2018-11-10T03:38:59.316Z,38.73
2018-11-10T03:41:27.381Z,41.40
2018-11-10T03:43:55.417Z,51.60
2018-11-10T03:46:25.420Z,39.50
2018-11-10T03:48:53.676Z,44.37
2018-11-10T03:51:21.672Z,40.03
2018-11-10T03:53:49.805Z,39.13
2018-11-10T03:56:17.823Z,43.37
2018-11-10T03:58:45.919Z,43.00
2018-11-10T04:01:13.984Z,45.60
2018-11-10T04:03:42.093Z,45.30
2018-11-10T04:06:10.126Z,43.57
2018-11-10T04:08:38.244Z,46.87
2018-11-10T04:11:06.399Z,37.87
2018-11-10T04:13:34.458Z,44.23
2018-11-10T04:16:02.530Z,43.53
2018-11-10T04:18:30.585Z,41.93
2018-11-10T04:20:58.648Z,38.47
2018-11-10T04:23:26.726Z,40.00
2018-11-10T04:25:54.841Z,46.43
2018-11-10T04:28:22.875Z,40.63
2018-11-10T04:30:50.991Z,58.23
2018-11-10T04:33:21.064Z,43.13
2018-11-10T04:35:49.162Z,38.97
2018-11-10T04:38:17.207Z,47.90
2018-11-10T04:40:45.287Z,48.87
2018-11-10T04:43:13.384Z,55.00
2018-11-10T04:45:41.456Z,39.23
2018-11-10T04:48:09.531Z,44.37
2018-11-10T04:50:37.555Z,42.47
2018-11-10T04:53:05.953Z,39.97
2018-11-10T04:55:34.052Z,37.50
2018-11-10T04:58:02.120Z,34.23
2018-11-10T05:00:30.177Z,41.10
2018-11-10T05:02:58.267Z,47.20
2018-11-10T05:05:26.336Z,32.30
2018-11-10T05:07:55.408Z,37.87
2018-11-10T05:10:25.530Z,36.70
2018-11-10T05:12:53.588Z,40.33
2018-11-10T05:15:21.704Z,35.27
2018-11-10T05:17:49.768Z,39.30
2018-11-10T05:20:17.860Z,32.80
2018-11-10T05:22:45.909Z,44.73
2018-11-10T05:25:13.975Z,36.80
2018-11-10T05:27:42.044Z,38.90
2018-11-10T05:30:10.530Z,36.87
2018-11-10T05:32:38.596Z,40.77
2018-11-10T05:35:07.390Z,43.30
2018-11-10T05:37:35.488Z,38.97
2018-11-10T05:40:03.900Z,35.83
2018-11-10T05:42:32.017Z,34.83
2018-11-10T05:45:00.095Z,43.83
2018-11-10T05:48:31.294Z,41.10
2018-11-10T05:50:59.396Z,35.93
2018-11-10T05:53:27.510Z,34.20
2018-11-10T05:55:55.551Z,44.70
2018-11-10T05:58:23.653Z,42.73
2018-11-10T06:00:51.695Z,37.43
2018-11-10T06:03:19.825Z,34.27
2018-11-10T06:05:48.876Z,37.33
2018-11-10T06:08:17.008Z,42.27
2018-11-10T06:10:45.115Z,34.87
2018-11-10T06:13:13.212Z,41.33
2018-11-10T06:15:41.252Z,40.57
2018-11-10T06:18:09.323Z,34.97
2018-11-10T06:20:38.289Z,40.57
2018-11-10T06:23:06.460Z,38.93
2018-11-10T06:25:34.570Z,34.87
2018-11-10T06:28:02.625Z,42.47
2018-11-10T06:30:30.723Z,32.23
2018-11-10T06:32:58.799Z,39.63
2018-11-10T06:35:26.869Z,40.20
2018-11-10T06:37:54.915Z,40.33
2018-11-10T06:40:22.987Z,46.73
2018-11-10T06:42:51.098Z,38.43
2018-11-10T06:45:19.132Z,38.40
2018-11-10T06:47:48.318Z,35.53
2018-11-10T06:50:16.432Z,47.97
2018-11-10T06:52:48.398Z,33.30
2018-11-10T06:55:24.117Z,41.20
2018-11-10T06:57:52.381Z,33.67
2018-11-10T07:00:20.535Z,50.33
2018-11-10T07:02:49.576Z,43.23
2018-11-10T07:05:17.668Z,46.43
2018-11-10T07:07:45.755Z,42.27
2018-11-10T07:10:13.802Z,44.63
2018-11-10T07:12:41.884Z,35.03
2018-11-10T07:15:10.032Z,37.23
2018-11-10T07:17:38.269Z,38.80
2018-11-10T07:20:06.728Z,36.80
2018-11-10T07:22:34.756Z,43.33
2018-11-10T07:25:02.999Z,39.93
2018-11-10T07:27:31.028Z,47.23
2018-11-10T07:29:59.089Z,40.83
2018-11-10T07:32:27.175Z,38.23
2018-11-10T07:34:55.237Z,36.10
2018-11-10T07:37:23.400Z,33.60
2018-11-10T07:39:51.385Z,36.90
2018-11-10T07:42:19.473Z,46.33
2018-11-10T07:44:47.540Z,37.53
2018-11-10T07:47:15.610Z,42.00
2018-11-10T07:49:43.694Z,40.80
2018-11-10T07:52:11.826Z,36.50
2018-11-10T07:54:39.982Z,33.40
2018-11-10T07:57:08.080Z,40.33
2018-11-10T07:59:36.236Z,36.63
2018-11-10T08:02:04.684Z,34.87
2018-11-10T08:04:32.763Z,39.97
2018-11-10T08:07:00.844Z,35.20
2018-11-10T08:09:28.955Z,33.23
2018-11-10T08:11:57.129Z,42.60
2018-11-10T08:14:25.106Z,38.77
2018-11-10T08:16:53.261Z,40.10
2018-11-10T08:19:22.379Z,37.50
2018-11-10T08:21:50.448Z,43.50
2018-11-10T08:24:18.553Z,38.27
2018-11-10T08:26:46.690Z,36.50
2018-11-10T08:29:14.800Z,38.93
2018-11-10T08:31:42.889Z,39.00
2018-11-10T08:34:11.094Z,46.20
2018-11-10T08:37:42.679Z,43.97
2018-11-10T08:40:13.104Z,34.03
2018-11-10T08:45:38.144Z,40.83
2018-11-10T08:48:09.245Z,37.57
2018-11-10T08:50:38.156Z,43.70
2018-11-10T08:53:06.351Z,48.63
2018-11-10T08:55:34.545Z,40.63
2018-11-10T08:58:04.942Z,41.77
2018-11-10T09:00:33.028Z,33.80
2018-11-10T09:03:05.835Z,35.20
2018-11-10T09:05:34.856Z,40.83
2018-11-10T09:08:04.146Z,38.70
2018-11-10T09:10:32.848Z,39.27
2018-11-10T09:13:01.013Z,40.53
2018-11-10T09:15:29.212Z,40.73
2018-11-10T09:17:57.400Z,44.27
2018-11-10T09:20:26.298Z,39.73
2018-11-10T09:22:55.846Z,40.13
2018-11-10T09:25:35.513Z,43.53
2018-11-10T09:28:05.120Z,40.40
2018-11-10T09:30:33.465Z,36.00
2018-11-10T09:33:01.608Z,38.77
2018-11-10T09:35:29.678Z,46.73
2018-11-10T09:37:58.591Z,52.07
2018-11-10T09:40:26.909Z,40.97
2018-11-10T09:42:55.044Z,39.33
2018-11-10T09:45:25.880Z,37.60
2018-11-10T09:47:54.782Z,37.70
2018-11-10T09:50:23.197Z,41.03
2018-11-10T09:52:51.342Z,37.07
2018-11-10T09:55:20.240Z,37.90
2018-11-10T09:57:48.406Z,38.40
2018-11-10T10:00:18.960Z,34.37
2018-11-10T10:02:47.456Z,42.57
2018-11-10T10:05:14.988Z,36.23
2018-11-10T10:07:43.646Z,37.23
2018-11-10T10:10:13.263Z,38.57
2018-11-10T10:12:41.836Z,34.60
2018-11-10T10:15:11.471Z,35.57
2018-11-10T10:17:40.148Z,35.03
2018-11-10T10:20:11.810Z,37.73
2018-11-10T10:22:39.859Z,35.23
2018-11-10T10:25:09.144Z,36.03
2018-11-10T10:27:37.428Z,30.90
2018-11-10T10:30:08.593Z,34.20
2018-11-10T10:32:36.682Z,30.53
2018-11-10T10:35:04.816Z,36.60
2018-11-10T10:37:32.737Z,31.43
2018-11-10T10:40:00.875Z,27.33
2018-11-10T10:42:28.920Z,30.77
2018-11-10T10:44:56.924Z,31.10
2018-11-10T10:47:25.257Z,28.23
2018-11-10T10:49:54.263Z,25.57
2018-11-10T10:52:22.299Z,27.70
2018-11-10T10:54:50.353Z,27.30
2018-11-10T10:57:18.401Z,24.77
2018-11-10T10:59:46.455Z,30.37
2018-11-10T11:02:19.949Z,30.20
2018-11-10T11:04:56.559Z,25.57
2018-11-10T11:07:25.958Z,27.30
2018-11-10T11:09:54.304Z,28.37
2018-11-10T11:12:22.939Z,28.37
2018-11-10T11:14:50.963Z,31.40
2018-11-10T11:17:18.972Z,29.50
2018-11-10T11:19:46.991Z,28.73
2018-11-10T11:22:15.010Z,28.47
2018-11-10T11:24:43.021Z,28.17
2018-11-10T11:27:11.107Z,28.20
2018-11-10T11:29:39.199Z,28.60
2018-11-10T11:32:07.143Z,32.57
2018-11-10T11:34:35.197Z,28.30
2018-11-10T11:37:03.176Z,28.70
2018-11-10T11:39:31.176Z,28.03
2018-11-10T11:41:59.231Z,29.30
2018-11-10T11:44:27.235Z,27.57
2018-11-10T11:46:55.279Z,26.03
2018-11-10T11:49:23.293Z,28.77
2018-11-10T11:51:51.341Z,27.97
2018-11-10T11:54:19.390Z,25.07
2018-11-10T11:56:47.438Z,27.90
2018-11-10T11:59:15.452Z,25.77
2018-11-10T12:01:43.496Z,26.80
2018-11-10T12:04:11.521Z,30.70
2018-11-10T12:06:39.603Z,29.60
2018-11-10T12:09:08.888Z,20.97
2018-11-10T12:11:36.902Z,23.23
2018-11-10T12:14:05.353Z,21.90
2018-11-10T12:16:33.374Z,28.57
2018-11-10T12:19:01.402Z,25.77
2018-11-10T12:21:29.424Z,22.27
2018-11-10T12:23:57.521Z,21.23
2018-11-10T12:27:28.897Z,21.67
2018-11-10T12:29:56.909Z,23.00
2018-11-10T12:32:24.971Z,27.80
2018-11-10T12:34:52.999Z,21.70
2018-11-10T12:37:21.012Z,22.50
2018-11-10T12:39:49.066Z,19.83
2018-11-10T12:42:17.084Z,21.40
2018-11-10T12:44:45.170Z,21.37
2018-11-10T12:47:13.186Z,23.30
2018-11-10T12:49:41.356Z,21.43
2018-11-10T12:52:09.391Z,23.30
2018-11-10T12:54:37.730Z,20.37
2018-11-10T12:57:06.059Z,21.23
2018-11-10T12:59:34.075Z,22.70
2018-11-10T13:02:02.110Z,20.40
2018-11-10T13:04:30.126Z,20.83
2018-11-10T13:06:58.153Z,19.53
2018-11-10T13:09:26.178Z,23.20
2018-11-10T13:11:54.343Z,20.13
2018-11-10T13:14:24.407Z,22.40
2018-11-10T13:16:52.618Z,21.20
2018-11-10T13:19:20.745Z,15.13
2018-11-10T13:21:48.840Z,22.13
2018-11-10T13:24:17.954Z,22.30
2018-11-10T13:26:45.905Z,25.17
2018-11-10T13:29:13.944Z,22.70
2018-11-10T13:31:42.160Z,21.17
2018-11-10T13:34:10.130Z,17.90
2018-11-10T13:36:38.139Z,17.63
2018-11-10T13:39:07.192Z,18.60
2018-11-10T13:41:35.231Z,20.40
2018-11-10T13:44:03.455Z,20.63
2018-11-10T13:46:31.392Z,18.33
2018-11-10T13:48:59.408Z,20.53
2018-11-10T13:51:27.700Z,22.50
2018-11-10T13:53:55.715Z,20.10
2018-11-10T13:56:23.775Z,19.83
2018-11-10T13:58:52.784Z,17.77
2018-11-10T14:01:20.827Z,16.83
2018-11-10T14:03:48.915Z,23.77
2018-11-10T14:06:16.969Z,16.67
2018-11-10T14:08:45.024Z,20.00
2018-11-10T14:11:13.060Z,17.70
2018-11-10T14:13:41.101Z,19.93
2018-11-10T14:16:09.157Z,21.73
2018-11-10T14:18:37.207Z,17.27
2018-11-10T14:21:05.369Z,20.83
2018-11-10T14:23:33.484Z,23.43
2018-11-10T14:26:01.543Z,19.70
2018-11-10T14:28:29.568Z,21.57
2018-11-10T14:30:57.679Z,17.87
2018-11-10T14:33:25.893Z,18.83
2018-11-10T14:35:53.936Z,17.87
2018-11-10T14:38:21.981Z,24.13
2018-11-10T14:40:50.007Z,22.00
2018-11-10T14:43:18.067Z,19.90
2018-11-10T14:45:46.105Z,23.63
2018-11-10T14:48:14.127Z,29.70
2018-11-10T14:50:42.154Z,26.10
2018-11-10T14:53:10.359Z,25.40
2018-11-10T14:55:38.260Z,24.33
2018-11-10T14:58:06.272Z,28.43
2018-11-10T15:00:34.338Z,20.27
2018-11-10T15:03:02.455Z,27.57
2018-11-10T15:05:30.581Z,20.40
2018-11-10T15:07:58.633Z,23.23
2018-11-10T15:10:26.674Z,23.57
2018-11-10T15:12:54.716Z,26.70
2018-11-10T15:15:22.759Z,22.33
2018-11-10T15:17:50.902Z,23.37
2018-11-10T15:20:19.548Z,23.73
2018-11-10T15:22:47.676Z,31.57
2018-11-10T15:25:17.196Z,22.13
2018-11-10T15:27:45.190Z,27.80
2018-11-10T15:30:14.505Z,23.00
2018-11-10T15:32:43.517Z,22.73
2018-11-10T15:35:13.120Z,23.30
2018-11-10T15:37:42.017Z,25.00
2018-11-10T15:40:11.304Z,26.83
2018-11-10T15:42:39.357Z,27.93
2018-11-10T15:45:08.292Z,26.70
2018-11-10T15:47:36.335Z,22.87
2018-11-10T15:50:05.164Z,26.13
2018-11-10T15:52:33.244Z,24.10
2018-11-10T15:55:01.302Z,22.53
2018-11-10T15:57:29.375Z,25.60
2018-11-10T15:59:57.431Z,24.00
2018-11-10T16:02:25.474Z,23.60
2018-11-10T16:04:53.502Z,25.87
2018-11-10T16:07:21.558Z,24.97
2018-11-10T16:09:49.593Z,27.67
2018-11-10T16:12:17.612Z,26.97
2018-11-10T16:14:45.670Z,26.83
2018-11-10T16:17:13.678Z,28.03
2018-11-10T16:19:41.704Z,21.87
2018-11-10T16:22:09.713Z,24.27
2018-11-10T16:24:37.783Z,28.73
2018-11-10T16:27:05.853Z,23.73
2018-11-10T16:29:33.983Z,22.03
2018-11-10T16:32:02.033Z,27.60
2018-11-10T16:34:30.118Z,26.67
2018-11-10T16:36:58.218Z,26.00
2018-11-10T16:39:26.231Z,22.83
2018-11-10T16:41:54.276Z,26.47
2018-11-10T16:44:22.304Z,30.47
2018-11-10T16:46:50.346Z,26.90
2018-11-10T16:49:18.365Z,26.00
2018-11-10T16:51:46.393Z,23.73
2018-11-10T16:54:14.446Z,27.93
2018-11-10T16:56:42.486Z,29.83
2018-11-10T16:59:10.641Z,28.03
2018-11-10T17:01:38.604Z,25.03
2018-11-10T17:04:06.647Z,30.53
2018-11-10T17:06:34.943Z,32.30
2018-11-10T17:09:03.991Z,31.93
2018-11-10T17:11:32.142Z,29.80
2018-11-10T17:14:00.181Z,29.67
2018-11-10T17:17:31.347Z,32.47
2018-11-10T17:20:00.442Z,37.73
2018-11-10T17:22:28.475Z,29.37
2018-11-10T17:24:56.541Z,28.60
2018-11-10T17:27:24.606Z,29.43
2018-11-10T17:29:52.735Z,35.80
2018-11-10T17:32:20.834Z,32.07
2018-11-10T17:34:48.862Z,33.30
2018-11-10T17:37:17.992Z,30.67
2018-11-10T17:39:46.208Z,31.37
2018-11-10T17:42:14.202Z,32.00
2018-11-10T17:44:42.115Z,40.60
2018-11-10T17:47:10.207Z,31.83
2018-11-10T17:49:38.276Z,33.90
2018-11-10T17:52:06.535Z,39.00
2018-11-10T17:54:34.621Z,39.37
2018-11-10T17:57:02.647Z,35.53
2018-11-10T17:59:30.735Z,35.70
2018-11-10T18:01:59.173Z,31.13
2018-11-10T18:04:27.283Z,30.43
2018-11-10T18:06:56.352Z,31.03
2018-11-10T18:09:24.453Z,30.33
2018-11-10T18:11:54.567Z,32.47
2018-11-10T18:14:22.649Z,37.13
2018-11-10T18:16:50.720Z,39.30
2018-11-10T18:19:18.810Z,33.30
2018-11-10T18:21:46.896Z,32.10
2018-11-10T18:24:14.923Z,34.17
2018-11-10T18:26:43.028Z,43.57
2018-11-10T18:29:11.079Z,31.60
2018-11-10T18:31:39.127Z,35.93
2018-11-10T18:34:07.228Z,34.53
2018-11-10T18:36:35.594Z,33.07
2018-11-10T18:39:04.804Z,26.40
2018-11-10T18:41:32.898Z,27.87
2018-11-10T18:44:00.997Z,32.03
2018-11-10T18:46:29.286Z,36.30
2018-11-10T18:48:57.424Z,36.93
2018-11-10T18:51:25.499Z,34.57
2018-11-10T18:53:55.599Z,38.83
2018-11-10T18:56:23.713Z,31.07
2018-11-10T18:58:51.760Z,33.23
2018-11-10T19:01:20.874Z,38.53
2018-11-10T19:03:48.991Z,34.53
2018-11-10T19:06:17.236Z,40.67
2018-11-10T19:08:45.267Z,33.17
2018-11-10T19:12:16.724Z,33.53
2018-11-10T19:14:44.764Z,36.63
2018-11-10T19:17:12.852Z,37.97
2018-11-10T19:19:40.910Z,34.10
2018-11-10T19:22:08.979Z,38.37
2018-11-10T19:26:01.668Z,33.77
2018-11-10T19:28:29.772Z,36.50
2018-11-10T19:30:58.096Z,38.10
2018-11-10T19:33:26.781Z,35.87
2018-11-10T19:35:54.904Z,40.93
2018-11-10T19:38:22.976Z,39.53
2018-11-10T19:40:51.188Z,34.73
2018-11-10T19:43:19.301Z,42.20
2018-11-10T19:45:47.346Z,35.40
2018-11-10T19:48:15.418Z,35.90
2018-11-10T19:50:43.614Z,34.73
2018-11-10T19:53:11.789Z,39.43
2018-11-10T19:55:39.859Z,33.03
2018-11-10T19:58:08.969Z,38.67
2018-11-10T20:00:37.043Z,37.37
2018-11-10T20:03:05.313Z,45.23
2018-11-10T20:05:33.390Z,38.47
2018-11-10T20:08:01.463Z,39.70
2018-11-10T20:10:29.540Z,45.27
2018-11-10T20:12:57.631Z,39.40
2018-11-10T20:15:25.762Z,36.40
2018-11-10T20:17:53.840Z,44.13
2018-11-10T20:20:22.967Z,37.57
2018-11-10T20:22:51.282Z,40.97
2018-11-10T20:25:19.813Z,37.80
2018-11-10T20:27:47.869Z,34.00
2018-11-10T20:30:17.291Z,38.20
2018-11-10T20:32:45.788Z,36.70
2018-11-10T20:35:14.935Z,40.57
2018-11-10T20:37:43.760Z,34.07
2018-11-10T20:40:13.181Z,37.47
2018-11-10T20:42:41.511Z,40.13
2018-11-10T20:45:12.255Z,35.77
2018-11-10T20:47:40.960Z,41.40
2018-11-10T20:52:45.197Z,51.33
2018-11-10T20:55:13.671Z,34.43
2018-11-10T20:57:41.728Z,45.03
2018-11-10T21:00:12.156Z,48.80
2018-11-10T21:02:41.257Z,36.33
2018-11-10T21:05:10.565Z,38.43
2018-11-10T21:07:38.704Z,38.80
2018-11-10T21:10:08.699Z,35.47
2018-11-10T21:12:38.924Z,41.60
2018-11-10T21:15:08.268Z,39.10
2018-11-10T21:17:36.536Z,36.77
2018-11-10T21:20:04.747Z,35.80
2018-11-10T21:22:32.848Z,42.13
2018-11-10T21:25:01.043Z,38.93
2018-11-10T21:27:29.121Z,46.60
2018-11-10T21:29:57.292Z,37.13
2018-11-10T21:32:25.300Z,37.50
2018-11-10T21:34:53.344Z,40.00
2018-11-10T21:37:21.428Z,41.30
2018-11-10T21:39:49.658Z,40.07
2018-11-10T21:42:17.895Z,45.97
2018-11-10T21:44:46.040Z,36.80
2018-11-10T21:47:14.174Z,38.33
2018-11-10T21:49:43.407Z,40.17
2018-11-10T21:52:11.388Z,34.57
2018-11-10T21:58:12.722Z,38.67
2018-11-10T22:00:40.883Z,40.20
2018-11-10T22:03:09.000Z,41.97
2018-11-10T22:05:37.099Z,47.97
2018-11-10T22:08:05.500Z,35.47
2018-11-10T22:10:33.549Z,41.03
2018-11-10T22:13:01.656Z,37.90
2018-11-10T22:15:29.837Z,42.30
2018-11-10T22:17:57.984Z,49.57
2018-11-10T22:20:26.055Z,44.70
2018-11-10T22:22:54.116Z,41.03
2018-11-10T22:25:22.218Z,35.47
2018-11-10T22:27:51.823Z,41.57
2018-11-10T22:30:21.056Z,40.27
2018-11-10T22:32:49.713Z,41.03
2018-11-10T22:35:17.819Z,38.10
2018-11-10T22:37:45.956Z,39.73
2018-11-10T22:40:15.339Z,44.27
2018-11-10T22:42:47.168Z,34.37
2018-11-10T22:45:20.131Z,36.80
2018-11-10T22:47:52.252Z,38.60
2018-11-10T22:50:22.425Z,36.70
2018-11-10T22:52:51.797Z,36.73
2018-11-10T22:55:21.115Z,42.80
2018-11-10T22:57:51.132Z,38.57
2018-11-10T23:00:23.779Z,46.80
2018-11-10T23:03:00.111Z,39.00
2018-11-10T23:06:32.481Z,45.83
2018-11-10T23:09:09.115Z,40.60
2018-11-10T23:11:37.389Z,38.77
2018-11-10T23:14:07.289Z,39.73
2018-11-10T23:16:37.666Z,41.50
2018-11-10T23:19:10.177Z,38.47
2018-11-10T23:21:42.376Z,40.03
2018-11-10T23:24:12.909Z,43.37
2018-11-10T23:26:46.583Z,40.80
2018-11-10T23:29:16.594Z,36.83
2018-11-10T23:31:45.131Z,36.70
2018-11-10T23:34:13.292Z,37.53
2018-11-10T23:36:44.683Z,39.70
2018-11-10T23:39:14.036Z,34.17
2018-11-10T23:41:42.283Z,40.50
2018-11-10T23:44:12.408Z,40.30
2018-11-10T23:46:41.571Z,35.90
2018-11-10T23:49:10.899Z,36.93
2018-11-10T23:51:39.121Z,40.03
2018-11-10T23:54:07.203Z,42.47
2018-11-10T23:56:35.535Z,37.53
2018-11-10T23:59:05.459Z,44.40
